createdAt,value
2022-10-06T00:00:47.898Z,91.90
2022-10-06T00:03:16.255Z,92.20
2022-10-06T00:05:44.498Z,92.40
2022-10-06T00:08:13.485Z,92.30
2022-10-06T00:10:41.197Z,92.40
2022-10-06T00:13:10.281Z,92.60
2022-10-06T00:15:38.124Z,93.10
2022-10-06T00:18:05.899Z,93.20
2022-10-06T00:20:34.015Z,93.20
2022-10-06T00:23:01.738Z,93.30
2022-10-06T00:25:30.876Z,93.30
2022-10-06T00:27:58.640Z,93.50
2022-10-06T00:30:28.157Z,93.70
2022-10-06T00:32:57.847Z,93.70
2022-10-06T00:35:26.338Z,93.70
2022-10-06T00:37:54.395Z,93.70
2022-10-06T00:40:23.369Z,93.80
2022-10-06T00:42:56.626Z,93.80
2022-10-06T00:45:29.577Z,93.90
2022-10-06T00:48:01.293Z,93.90
2022-10-06T00:50:30.348Z,93.90
2022-10-06T00:52:59.077Z,93.90
2022-10-06T00:55:26.833Z,94.00
2022-10-06T00:57:56.067Z,94.00
2022-10-06T01:00:24.997Z,94.00
2022-10-06T01:02:57.483Z,93.80
2022-10-06T01:05:29.715Z,93.80
2022-10-06T01:07:58.351Z,93.80
2022-10-06T01:10:27.549Z,93.90
2022-10-06T01:12:57.122Z,94.20
2022-10-06T01:15:26.253Z,94.50
2022-10-06T01:18:01.016Z,94.20
2022-10-06T01:20:29.921Z,94.20
2022-10-06T01:23:03.766Z,93.70
2022-10-06T01:25:32.397Z,93.80
2022-10-06T01:28:01.770Z,93.70
2022-10-06T01:30:32.341Z,92.60
2022-10-06T01:33:00.104Z,92.90
2022-10-06T01:35:28.136Z,93.00
2022-10-06T01:37:58.685Z,93.00
2022-10-06T01:40:30.136Z,92.90
2022-10-06T01:43:01.370Z,93.10
2022-10-06T01:45:29.700Z,93.40
2022-10-06T01:47:57.637Z,93.40
2022-10-06T01:50:25.584Z,93.40
2022-10-06T01:52:55.817Z,93.40
2022-10-06T01:55:25.949Z,93.50
2022-10-06T01:57:55.976Z,93.30
2022-10-06T02:00:26.661Z,93.10
2022-10-06T02:02:54.674Z,93.20
2022-10-06T02:05:25.477Z,93.20
2022-10-06T02:07:55.729Z,92.90
2022-10-06T02:10:23.561Z,93.00
2022-10-06T02:12:53.569Z,92.90
2022-10-06T02:15:24.991Z,92.90
2022-10-06T02:17:52.690Z,92.90
2022-10-06T02:20:20.998Z,93.00
2022-10-06T02:22:50.449Z,93.10
2022-10-06T02:25:18.676Z,93.10
2022-10-06T02:27:46.481Z,93.20
2022-10-06T02:30:15.302Z,93.40
2022-10-06T02:32:45.925Z,93.60
2022-10-06T02:35:14.940Z,93.50
2022-10-06T02:37:43.989Z,93.50
2022-10-06T02:40:16.339Z,93.80
2022-10-06T02:42:46.092Z,94.00
2022-10-06T02:45:18.048Z,94.30
2022-10-06T02:47:54.101Z,94.20
2022-10-06T02:50:22.096Z,94.20
2022-10-06T02:52:49.954Z,94.40
2022-10-06T02:55:17.805Z,94.20
2022-10-06T02:57:45.488Z,93.40
2022-10-06T03:00:14.730Z,93.10
2022-10-06T03:02:42.636Z,92.30
2022-10-06T03:05:12.358Z,91.80
2022-10-06T03:07:40.902Z,91.40
2022-10-06T03:10:09.475Z,91.40
2022-10-06T03:12:38.124Z,90.60
2022-10-06T03:15:08.276Z,90.30
2022-10-06T03:17:37.805Z,90.30
2022-10-06T03:20:07.188Z,90.20
2022-10-06T03:22:36.219Z,89.90
2022-10-06T03:25:07.016Z,89.90
2022-10-06T03:27:34.825Z,89.80
2022-10-06T03:30:05.937Z,89.70
2022-10-06T03:32:35.844Z,89.50
2022-10-06T03:35:03.726Z,89.30
2022-10-06T03:37:31.570Z,89.20
2022-10-06T03:40:03.453Z,89.40
2022-10-06T03:42:32.109Z,89.50
2022-10-06T03:44:59.966Z,89.60
2022-10-06T03:47:29.953Z,89.70
2022-10-06T03:49:58.962Z,89.90
2022-10-06T03:52:27.821Z,89.90
2022-10-06T03:54:55.751Z,89.90
2022-10-06T03:57:25.196Z,90.00
2022-10-06T03:59:52.962Z,90.10
2022-10-06T04:02:20.767Z,90.10
2022-10-06T04:04:48.541Z,90.40
2022-10-06T04:07:16.241Z,90.30
2022-10-06T04:09:43.968Z,90.40
2022-10-06T04:12:13.357Z,90.40
2022-10-06T04:14:44.519Z,90.50
2022-10-06T04:17:12.476Z,90.40
2022-10-06T04:19:41.613Z,90.30
2022-10-06T04:22:09.358Z,90.40
2022-10-06T04:24:37.397Z,90.50
2022-10-06T04:27:19.343Z,90.60
2022-10-06T04:29:56.204Z,90.50
2022-10-06T04:32:24.341Z,90.60
2022-10-06T04:34:55.784Z,90.50
2022-10-06T04:37:31.486Z,90.80
2022-10-06T04:40:03.750Z,90.70
2022-10-06T04:42:35.204Z,90.80
2022-10-06T04:45:08.144Z,90.80
2022-10-06T04:47:37.682Z,90.80
2022-10-06T04:50:09.014Z,90.90
2022-10-06T04:52:37.929Z,90.60
2022-10-06T04:55:06.670Z,90.70
2022-10-06T04:57:35.381Z,90.50
2022-10-06T05:00:17.347Z,90.40
2022-10-06T05:02:51.119Z,90.70
2022-10-06T05:05:21.453Z,90.50
2022-10-06T05:07:51.012Z,90.70
2022-10-06T05:10:19.045Z,90.60
2022-10-06T05:12:46.824Z,90.50
2022-10-06T05:15:15.434Z,90.40
2022-10-06T05:17:43.170Z,90.40
2022-10-06T05:20:13.489Z,90.50
2022-10-06T05:22:41.521Z,90.40
2022-10-06T05:25:10.213Z,90.50
2022-10-06T05:27:38.009Z,90.50
2022-10-06T05:30:06.270Z,90.60
2022-10-06T05:32:36.188Z,90.50
2022-10-06T05:35:06.194Z,90.60
2022-10-06T05:37:35.301Z,90.10
2022-10-06T05:40:03.146Z,90.40
2022-10-06T05:42:34.409Z,89.80
2022-10-06T05:45:02.293Z,89.70
2022-10-06T05:47:30.667Z,89.80
2022-10-06T05:49:58.407Z,89.60
2022-10-06T05:52:26.404Z,89.60
2022-10-06T05:54:55.874Z,89.20
2022-10-06T05:57:23.687Z,89.20
2022-10-06T05:59:51.505Z,88.60
2022-10-06T06:02:19.321Z,88.60
2022-10-06T06:04:47.659Z,88.20
2022-10-06T06:07:15.385Z,87.80
2022-10-06T06:09:45.282Z,87.50
2022-10-06T06:12:16.477Z,87.40
2022-10-06T06:15:04.098Z,87.30
2022-10-06T06:17:38.465Z,87.30
2022-10-06T06:20:07.828Z,86.80
2022-10-06T06:22:35.843Z,86.80
2022-10-06T06:25:05.308Z,86.50
2022-10-06T06:27:35.594Z,86.00
2022-10-06T06:30:04.437Z,86.00
2022-10-06T06:32:32.544Z,85.80
2022-10-06T06:35:00.737Z,86.20
2022-10-06T06:37:31.320Z,86.40
2022-10-06T06:39:59.753Z,86.50
2022-10-06T06:42:27.912Z,86.60
2022-10-06T06:45:02.267Z,86.40
2022-10-06T06:47:36.164Z,86.50
2022-10-06T06:50:10.114Z,86.50
2022-10-06T06:52:39.501Z,87.00
2022-10-06T06:55:10.098Z,87.40
2022-10-06T06:57:39.637Z,87.70
2022-10-06T07:00:10.321Z,87.60
2022-10-06T07:02:39.893Z,88.10
2022-10-06T07:05:08.146Z,88.80
2022-10-06T07:07:39.525Z,89.10
2022-10-06T07:10:08.790Z,89.20
2022-10-06T07:12:36.717Z,89.40
2022-10-06T07:15:18.792Z,88.40
2022-10-06T07:18:06.766Z,89.20
2022-10-06T07:20:48.714Z,90.60
2022-10-06T07:23:33.545Z,90.00
2022-10-06T07:26:01.459Z,89.50
2022-10-06T07:28:30.562Z,87.50
2022-10-06T07:31:00.525Z,87.40
2022-10-06T07:33:32.354Z,86.70
2022-10-06T07:36:03.000Z,86.90
2022-10-06T07:38:32.246Z,86.50
2022-10-06T07:41:18.235Z,86.00
2022-10-06T07:43:53.609Z,86.20
2022-10-06T07:46:21.428Z,84.90
2022-10-06T07:48:59.160Z,84.90
2022-10-06T07:51:27.310Z,84.10
2022-10-06T07:53:57.195Z,83.30
2022-10-06T07:56:38.945Z,84.40
2022-10-06T07:59:06.766Z,83.50
2022-10-06T08:01:34.635Z,83.30
2022-10-06T08:04:06.640Z,82.20
2022-10-06T08:06:35.975Z,82.80
2022-10-06T08:09:04.025Z,82.70
2022-10-06T08:11:33.789Z,81.30
2022-10-06T08:14:01.645Z,79.40
2022-10-06T08:16:30.475Z,76.50
2022-10-06T08:18:59.806Z,74.60
2022-10-06T08:21:30.410Z,73.90
2022-10-06T08:24:02.754Z,72.00
2022-10-06T08:26:31.000Z,68.50
2022-10-06T08:29:02.903Z,70.50
2022-10-06T08:31:31.696Z,68.60
2022-10-06T08:33:59.652Z,65.30
2022-10-06T08:36:31.828Z,63.30
2022-10-06T08:39:00.546Z,58.80
2022-10-06T08:41:40.077Z,55.00
2022-10-06T08:44:20.393Z,54.20
2022-10-06T08:46:54.509Z,52.80
2022-10-06T08:49:26.821Z,53.60
2022-10-06T08:52:05.560Z,52.50
2022-10-06T08:54:41.992Z,53.10
2022-10-06T08:57:18.528Z,54.60
2022-10-06T08:59:49.857Z,56.80
2022-10-06T09:02:29.494Z,57.30
2022-10-06T09:05:01.270Z,57.90
2022-10-06T09:07:45.474Z,58.80
2022-10-06T09:10:28.095Z,60.10
2022-10-06T09:12:58.640Z,60.70
2022-10-06T09:15:35.020Z,62.70
2022-10-06T09:18:10.559Z,64.60
2022-10-06T09:20:43.320Z,65.30
2022-10-06T09:23:17.002Z,65.80
2022-10-06T09:25:44.847Z,66.00
2022-10-06T09:28:16.123Z,68.90
2022-10-06T09:30:44.106Z,70.20
2022-10-06T09:33:19.922Z,70.60
2022-10-06T09:36:06.147Z,68.90
2022-10-06T09:38:52.616Z,70.30
2022-10-06T09:41:23.337Z,68.50
2022-10-06T09:43:55.954Z,68.90
2022-10-06T09:46:30.337Z,68.60
2022-10-06T09:49:15.260Z,68.90
2022-10-06T09:51:56.226Z,68.00
2022-10-06T09:54:25.389Z,66.20
2022-10-06T09:56:53.966Z,66.60
2022-10-06T09:59:23.893Z,66.80
2022-10-06T10:01:52.722Z,66.70
2022-10-06T10:04:26.089Z,64.30
2022-10-06T10:07:16.826Z,62.80
2022-10-06T10:09:49.482Z,61.30
2022-10-06T10:12:28.850Z,57.30
2022-10-06T10:15:03.868Z,55.60
2022-10-06T10:17:49.699Z,55.80
2022-10-06T10:20:27.815Z,55.40
2022-10-06T10:22:57.141Z,55.00
2022-10-06T10:25:44.294Z,55.20
2022-10-06T10:28:31.564Z,59.20
2022-10-06T10:31:08.069Z,58.20
2022-10-06T10:33:54.022Z,57.60
2022-10-06T10:36:38.867Z,58.60
2022-10-06T10:39:14.432Z,58.00
2022-10-06T10:41:48.384Z,58.60
2022-10-06T10:44:30.829Z,59.50
2022-10-06T10:47:08.752Z,59.00
2022-10-06T10:49:37.271Z,60.00
2022-10-06T10:52:12.846Z,56.20
2022-10-06T10:54:51.381Z,56.30
2022-10-06T10:57:25.058Z,55.50
2022-10-06T11:00:00.660Z,54.10
2022-10-06T11:02:29.092Z,54.20
2022-10-06T11:05:02.433Z,54.70
2022-10-06T11:07:40.657Z,54.50
2022-10-06T11:10:14.218Z,55.80
2022-10-06T11:12:58.985Z,54.40
2022-10-06T11:15:41.777Z,52.90
2022-10-06T11:18:22.193Z,58.00
2022-10-06T11:20:54.074Z,62.20
2022-10-06T11:23:31.985Z,62.00
2022-10-06T11:26:10.586Z,62.20
2022-10-06T11:28:45.853Z,62.00
2022-10-06T11:31:23.646Z,61.60
2022-10-06T11:33:54.185Z,59.50
2022-10-06T11:36:34.491Z,57.20
2022-10-06T11:39:07.805Z,58.30
2022-10-06T11:41:39.877Z,57.00
2022-10-06T11:44:17.566Z,58.60
2022-10-06T11:46:50.794Z,59.40
2022-10-06T11:49:38.962Z,58.80
2022-10-06T11:52:37.679Z,59.30
2022-10-06T11:55:12.846Z,59.10
2022-10-06T11:58:37.873Z,59.90
2022-10-06T12:01:02.015Z,58.70
2022-10-06T12:03:47.115Z,58.70
2022-10-06T12:06:44.691Z,60.30
2022-10-06T12:09:39.567Z,60.50
2022-10-06T12:13:05.280Z,60.60
2022-10-06T12:18:51.025Z,61.20
2022-10-06T12:21:31.029Z,62.40
2022-10-06T12:24:06.317Z,63.70
2022-10-06T12:26:49.229Z,62.60
2022-10-06T12:29:34.656Z,63.70
2022-10-06T12:32:15.526Z,62.70
2022-10-06T12:34:58.147Z,63.50
2022-10-06T12:37:38.412Z,63.30
2022-10-06T12:40:36.507Z,63.70
2022-10-06T12:43:27.519Z,63.00
2022-10-06T12:46:00.182Z,62.90
2022-10-06T12:48:34.862Z,63.30
2022-10-06T12:51:15.534Z,63.60
2022-10-06T12:53:52.257Z,64.20
2022-10-06T12:56:29.197Z,63.20
2022-10-06T12:58:56.997Z,65.10
2022-10-06T13:01:26.003Z,64.90
2022-10-06T13:03:55.069Z,65.60
2022-10-06T13:06:25.969Z,65.70
2022-10-06T13:09:06.355Z,65.50
2022-10-06T13:11:35.437Z,66.40
2022-10-06T13:14:14.327Z,67.30
2022-10-06T13:16:45.482Z,64.80
2022-10-06T13:19:17.996Z,66.10
2022-10-06T13:21:48.145Z,66.60
2022-10-06T13:24:21.130Z,66.50
2022-10-06T13:26:50.254Z,67.20
2022-10-06T13:29:21.194Z,66.70
2022-10-06T13:31:52.817Z,66.30
2022-10-06T13:34:28.613Z,67.80
2022-10-06T13:36:59.839Z,67.90
2022-10-06T13:39:31.447Z,70.10
2022-10-06T13:42:03.200Z,70.40
2022-10-06T13:44:36.408Z,71.10
2022-10-06T13:47:07.815Z,70.40
2022-10-06T13:49:43.014Z,71.40
2022-10-06T13:52:18.457Z,71.60
2022-10-06T13:54:50.684Z,70.60
2022-10-06T13:57:34.257Z,71.00
2022-10-06T14:00:05.363Z,71.60
2022-10-06T14:02:50.486Z,72.70
2022-10-06T14:05:26.722Z,72.70
2022-10-06T14:07:57.485Z,72.40
2022-10-06T14:10:27.971Z,70.80
2022-10-06T14:12:56.420Z,71.30
2022-10-06T14:15:26.950Z,71.60
2022-10-06T14:17:58.243Z,70.80
2022-10-06T14:20:42.383Z,71.30
2022-10-06T14:23:39.926Z,71.50
2022-10-06T14:26:08.386Z,70.80
2022-10-06T14:28:36.240Z,72.20
2022-10-06T14:31:05.346Z,73.40
2022-10-06T14:33:34.759Z,72.30
2022-10-06T14:36:02.767Z,72.50
2022-10-06T14:38:30.952Z,71.90
2022-10-06T14:41:02.537Z,71.50
2022-10-06T14:43:30.333Z,71.20
2022-10-06T14:46:01.446Z,71.50
2022-10-06T14:48:31.852Z,71.30
2022-10-06T14:51:04.192Z,72.20
2022-10-06T14:53:32.566Z,74.00
2022-10-06T14:56:03.017Z,72.80
2022-10-06T14:58:30.781Z,72.60
2022-10-06T15:01:05.362Z,73.90
2022-10-06T15:03:33.414Z,74.90
2022-10-06T15:06:20.785Z,74.70
2022-10-06T15:08:51.781Z,74.20
2022-10-06T15:11:24.649Z,74.30
2022-10-06T15:13:54.766Z,74.80
2022-10-06T15:16:23.193Z,74.60
2022-10-06T15:18:51.358Z,74.70
2022-10-06T15:21:21.040Z,75.00
2022-10-06T15:23:48.992Z,76.80
2022-10-06T15:26:30.787Z,77.00
2022-10-06T15:29:01.490Z,76.50
2022-10-06T15:31:31.054Z,78.00
2022-10-06T15:34:00.953Z,79.80
2022-10-06T15:36:32.916Z,80.50
2022-10-06T15:39:05.414Z,79.40
2022-10-06T15:41:34.638Z,79.60
2022-10-06T15:44:04.049Z,78.70
2022-10-06T15:46:34.246Z,79.80
2022-10-06T15:49:04.342Z,79.30
2022-10-06T15:51:37.201Z,76.60
2022-10-06T15:54:05.922Z,76.90
2022-10-06T15:56:34.030Z,75.80
2022-10-06T15:59:01.808Z,74.90
2022-10-06T16:01:38.543Z,73.60
2022-10-06T16:04:14.858Z,74.30
2022-10-06T16:06:49.785Z,75.90
2022-10-06T16:09:19.070Z,77.60
2022-10-06T16:11:48.195Z,78.00
2022-10-06T16:14:16.866Z,75.70
2022-10-06T16:16:46.443Z,82.00
2022-10-06T16:19:18.006Z,83.20
2022-10-06T16:21:49.753Z,83.80
2022-10-06T16:24:18.447Z,84.20
2022-10-06T16:26:46.952Z,84.70
2022-10-06T16:29:15.115Z,85.10
2022-10-06T16:31:43.017Z,85.70
2022-10-06T16:34:11.342Z,85.90
2022-10-06T16:36:39.463Z,86.40
2022-10-06T16:39:13.114Z,86.50
2022-10-06T16:41:40.938Z,86.30
2022-10-06T16:44:09.884Z,86.50
2022-10-06T16:46:39.209Z,87.20
2022-10-06T16:49:08.503Z,87.60
2022-10-06T16:51:37.905Z,87.60
2022-10-06T16:54:08.784Z,87.50
2022-10-06T16:56:39.016Z,87.60
2022-10-06T16:59:12.961Z,88.10
2022-10-06T17:01:40.867Z,88.50
2022-10-06T17:04:10.768Z,89.10
2022-10-06T17:06:40.546Z,89.70
2022-10-06T17:09:14.027Z,89.70
2022-10-06T17:11:42.937Z,89.60
2022-10-06T17:14:11.031Z,89.60
2022-10-06T17:16:41.271Z,89.50
2022-10-06T17:19:10.814Z,89.70
2022-10-06T17:21:48.064Z,89.70
2022-10-06T17:24:20.658Z,90.20
2022-10-06T17:26:49.571Z,90.20
2022-10-06T17:29:19.279Z,90.20
2022-10-06T17:31:48.264Z,90.40
2022-10-06T17:34:20.762Z,90.50
2022-10-06T17:36:51.602Z,90.40
2022-10-06T17:39:27.768Z,90.70
2022-10-06T17:42:00.389Z,90.60
2022-10-06T17:44:29.059Z,90.50
2022-10-06T17:46:58.811Z,90.50
2022-10-06T17:49:28.527Z,90.60
2022-10-06T17:51:56.429Z,90.70
2022-10-06T17:54:27.019Z,90.60
2022-10-06T17:56:56.585Z,90.50
2022-10-06T17:59:27.941Z,91.00
2022-10-06T18:01:57.000Z,91.00
2022-10-06T18:04:26.425Z,90.70
2022-10-06T18:06:55.398Z,90.60
2022-10-06T18:09:24.996Z,90.80
2022-10-06T18:11:55.874Z,90.80
2022-10-06T18:14:25.754Z,91.10
2022-10-06T18:16:56.656Z,91.30
2022-10-06T18:19:26.722Z,91.50
2022-10-06T18:21:58.348Z,91.60
2022-10-06T18:24:29.277Z,91.70
2022-10-06T18:26:59.598Z,91.90
2022-10-06T18:29:30.079Z,91.80
2022-10-06T18:32:25.800Z,91.60
2022-10-06T18:37:35.782Z,91.50
2022-10-06T18:40:13.089Z,91.20
2022-10-06T18:42:41.057Z,90.80
2022-10-06T18:45:25.792Z,90.70
2022-10-06T18:48:07.558Z,90.60
2022-10-06T18:50:35.433Z,90.70
2022-10-06T18:53:04.268Z,90.70
2022-10-06T18:55:34.915Z,90.50
2022-10-06T18:58:03.288Z,90.70
2022-10-06T19:00:31.153Z,90.80
2022-10-06T19:02:59.191Z,90.60
2022-10-06T19:05:27.486Z,90.50
2022-10-06T19:07:55.674Z,90.50
2022-10-06T19:10:23.613Z,90.50
2022-10-06T19:12:52.835Z,90.50
2022-10-06T19:15:21.923Z,90.70
2022-10-06T19:17:50.048Z,90.60
2022-10-06T19:20:18.599Z,90.80
2022-10-06T19:22:47.303Z,91.00
2022-10-06T19:25:18.437Z,91.10
2022-10-06T19:27:46.854Z,91.10
2022-10-06T19:30:16.281Z,91.40
2022-10-06T19:32:44.339Z,91.20
2022-10-06T19:35:15.055Z,90.90
2022-10-06T19:37:43.167Z,90.90
2022-10-06T19:40:11.821Z,91.10
2022-10-06T19:42:53.686Z,91.10
2022-10-06T19:45:22.734Z,91.10
2022-10-06T19:47:51.299Z,91.20
2022-10-06T19:50:19.102Z,91.50
2022-10-06T19:52:46.918Z,91.60
2022-10-06T19:55:14.993Z,91.60
2022-10-06T19:57:43.081Z,91.90
2022-10-06T20:00:12.111Z,92.10
2022-10-06T20:02:43.774Z,92.30
2022-10-06T20:05:13.260Z,92.30
2022-10-06T20:07:41.998Z,92.20
2022-10-06T20:10:11.628Z,92.10
2022-10-06T20:12:41.225Z,92.20
2022-10-06T20:15:10.786Z,91.90
2022-10-06T20:17:41.399Z,92.10
2022-10-06T20:20:11.125Z,92.50
2022-10-06T20:22:38.877Z,92.60
2022-10-06T20:25:07.184Z,92.70
2022-10-06T20:27:35.163Z,92.70
2022-10-06T20:30:02.991Z,92.60
2022-10-06T20:32:30.682Z,92.50
2022-10-06T20:34:58.749Z,92.50
2022-10-06T20:37:27.813Z,92.50
2022-10-06T20:40:09.513Z,92.70
2022-10-06T20:42:37.245Z,92.60
2022-10-06T20:45:05.318Z,92.80
2022-10-06T20:47:33.161Z,92.80
2022-10-06T20:50:00.845Z,92.80
2022-10-06T20:52:30.133Z,92.90
2022-10-06T20:54:57.898Z,92.60
2022-10-06T20:57:27.320Z,92.50
2022-10-06T20:59:57.949Z,92.50
2022-10-06T21:02:25.822Z,92.60
2022-10-06T21:04:53.851Z,92.50
2022-10-06T21:07:21.548Z,92.50
2022-10-06T21:09:52.307Z,92.80
2022-10-06T21:12:20.623Z,92.90
2022-10-06T21:14:48.355Z,93.10
2022-10-06T21:17:16.076Z,93.10
2022-10-06T21:19:46.192Z,93.10
2022-10-06T21:22:13.945Z,92.90
2022-10-06T21:24:41.627Z,93.10
2022-10-06T21:27:10.656Z,93.20
2022-10-06T21:29:38.905Z,93.20
2022-10-06T21:32:06.600Z,93.20
2022-10-06T21:34:34.282Z,93.30
2022-10-06T21:37:02.441Z,93.70
2022-10-06T21:39:30.125Z,93.70
2022-10-06T21:41:57.851Z,93.50
2022-10-06T21:44:26.888Z,93.50
2022-10-06T21:46:56.033Z,93.40
2022-10-06T21:49:25.079Z,93.50
2022-10-06T21:51:58.226Z,93.50
2022-10-06T21:54:25.908Z,93.50
2022-10-06T21:56:53.589Z,93.50
2022-10-06T21:59:21.460Z,93.50
2022-10-06T22:01:50.716Z,93.70
2022-10-06T22:04:18.675Z,93.50
2022-10-06T22:06:49.743Z,93.50
2022-10-06T22:09:22.181Z,93.50
2022-10-06T22:11:50.477Z,93.50
2022-10-06T22:14:20.050Z,93.50
2022-10-06T22:16:50.393Z,93.60
2022-10-06T22:19:18.596Z,93.50
2022-10-06T22:21:47.758Z,93.40
2022-10-06T22:24:17.684Z,93.50
2022-10-06T22:26:46.187Z,93.60
2022-10-06T22:29:16.778Z,93.70
2022-10-06T22:31:46.183Z,93.70
2022-10-06T22:34:17.410Z,93.60
2022-10-06T22:36:45.308Z,93.50
2022-10-06T22:39:13.545Z,93.30
2022-10-06T22:41:41.446Z,92.90
2022-10-06T22:44:09.278Z,92.90
2022-10-06T22:46:38.521Z,92.80
2022-10-06T22:49:06.863Z,92.60
2022-10-06T22:51:36.201Z,93.20
2022-10-06T22:54:03.928Z,93.20
2022-10-06T22:56:33.897Z,93.40
2022-10-06T22:59:02.712Z,93.50
2022-10-06T23:01:31.091Z,93.90
2022-10-06T23:04:01.451Z,93.80
2022-10-06T23:06:30.974Z,93.80
2022-10-06T23:09:00.298Z,93.70
2022-10-06T23:11:28.836Z,93.70
2022-10-06T23:13:56.773Z,93.60
2022-10-06T23:16:25.379Z,93.30
2022-10-06T23:18:53.254Z,93.30
2022-10-06T23:21:22.909Z,93.20
2022-10-06T23:23:52.488Z,93.20
2022-10-06T23:26:23.317Z,93.30
2022-10-06T23:28:53.213Z,93.30
2022-10-06T23:31:21.091Z,93.10
2022-10-06T23:33:49.114Z,93.00
2022-10-06T23:36:17.611Z,93.00
2022-10-06T23:38:46.191Z,93.30
2022-10-06T23:41:14.218Z,93.20
2022-10-06T23:43:43.478Z,93.10
2022-10-06T23:46:11.608Z,93.30
2022-10-06T23:48:39.679Z,93.10
2022-10-06T23:51:09.379Z,92.90
2022-10-06T23:53:37.524Z,92.80
2022-10-06T23:56:06.563Z,93.20
2022-10-06T23:58:34.363Z,93.50
